createdAt,value
2023-03-23T15:58:40.883Z,23.55
2023-03-23T16:01:13.086Z,26.42
2023-03-23T16:04:15.293Z,23.48
2023-03-23T16:06:42.676Z,22.92
2023-03-23T16:09:16.182Z,25.65
2023-03-23T16:11:43.575Z,24.63
2023-03-23T16:14:10.469Z,25.88
2023-03-23T16:16:47.300Z,28.08
2023-03-23T16:19:16.730Z,25.05
2023-03-23T16:21:43.942Z,27.52
2023-03-23T16:24:12.121Z,24.23
2023-03-23T16:26:41.037Z,25.10
2023-03-23T16:29:33.898Z,23.77
2023-03-23T16:32:03.477Z,24.65
2023-03-23T16:34:33.609Z,25.75
2023-03-23T16:37:00.690Z,22.52
2023-03-23T16:39:27.821Z,23.60
2023-03-23T16:41:54.633Z,25.38
2023-03-23T16:44:21.502Z,24.08
2023-03-23T16:46:48.264Z,23.52
2023-03-23T16:49:15.502Z,24.25
2023-03-23T16:51:43.097Z,27.05
2023-03-23T16:54:10.721Z,25.52
2023-03-23T16:56:37.768Z,28.75
2023-03-23T16:59:04.675Z,23.55
2023-03-23T17:01:31.852Z,23.50
2023-03-23T17:03:58.796Z,23.83
2023-03-23T17:06:26.050Z,25.52
2023-03-23T17:08:52.786Z,26.00
2023-03-23T17:11:19.699Z,26.45
2023-03-23T17:13:46.495Z,27.98
2023-03-23T17:16:13.385Z,26.85
2023-03-23T17:18:40.171Z,25.65
2023-03-23T17:21:07.512Z,24.98
2023-03-23T17:23:34.358Z,26.08
2023-03-23T17:26:01.506Z,29.25
2023-03-23T17:28:28.409Z,24.35
2023-03-23T17:30:55.357Z,26.08
2023-03-23T17:33:22.140Z,27.92
2023-03-23T17:35:51.753Z,27.83
2023-03-23T17:38:19.017Z,26.55
2023-03-23T17:40:46.007Z,25.58
2023-03-23T17:43:13.069Z,27.13
2023-03-23T17:45:41.451Z,24.05
2023-03-23T17:48:09.097Z,23.30
2023-03-23T17:50:36.175Z,25.95
2023-03-23T17:53:03.128Z,27.40
2023-03-23T17:55:30.031Z,26.15
2023-03-23T17:57:56.786Z,29.55
2023-03-23T18:00:24.024Z,27.95
2023-03-23T18:02:53.847Z,27.50
2023-03-23T18:05:21.337Z,25.90
2023-03-23T18:07:48.289Z,24.20
2023-03-23T18:10:15.379Z,23.05
2023-03-23T18:12:42.690Z,26.13
2023-03-23T18:15:10.511Z,26.45
2023-03-23T18:17:37.756Z,27.33
2023-03-23T18:20:07.054Z,25.60
2023-03-23T18:22:33.887Z,26.40
2023-03-23T18:25:02.595Z,27.35
2023-03-23T18:27:29.687Z,26.02
2023-03-23T18:29:57.078Z,26.83
2023-03-23T18:32:24.396Z,26.45
2023-03-23T18:34:51.771Z,25.15
2023-03-23T18:37:20.476Z,27.73
2023-03-23T18:39:47.418Z,26.70
2023-03-23T18:42:14.636Z,22.52
2023-03-23T18:44:41.749Z,24.65
2023-03-23T18:47:08.658Z,25.83
2023-03-23T18:49:35.722Z,25.02
2023-03-23T18:52:02.593Z,29.88
2023-03-23T18:54:29.971Z,28.95
2023-03-23T18:57:00.208Z,31.48
2023-03-23T18:59:30.636Z,31.20
2023-03-23T19:02:00.696Z,31.02
2023-03-23T19:04:31.593Z,32.33
2023-03-23T19:06:59.856Z,31.88
2023-03-23T19:09:27.497Z,31.00
2023-03-23T19:11:54.526Z,31.05
2023-03-23T19:14:21.945Z,28.55
2023-03-23T19:16:48.777Z,31.95
2023-03-23T19:19:15.618Z,30.20
2023-03-23T19:21:46.792Z,32.60
2023-03-23T19:24:15.467Z,30.70
2023-03-23T19:26:44.182Z,29.77
2023-03-23T19:31:46.335Z,31.35
2023-03-23T19:34:14.565Z,30.30
2023-03-23T19:36:41.674Z,27.33
2023-03-23T19:39:09.260Z,32.80
2023-03-23T19:41:36.327Z,31.25
2023-03-23T19:44:04.018Z,31.45
2023-03-23T19:46:31.690Z,29.50
2023-03-23T19:48:58.873Z,33.50
2023-03-23T19:51:26.786Z,30.48
2023-03-23T19:53:57.197Z,31.15
2023-03-23T19:56:24.654Z,31.95
2023-03-23T19:58:52.306Z,29.15
2023-03-23T20:01:19.224Z,30.48
2023-03-23T20:03:46.534Z,31.00
2023-03-23T20:06:15.363Z,30.77
2023-03-23T20:08:45.555Z,29.38
2023-03-23T20:11:17.129Z,30.45
2023-03-23T20:13:45.325Z,28.95
2023-03-23T20:16:12.332Z,29.17
2023-03-23T20:18:40.320Z,28.60
2023-03-23T20:21:13.062Z,30.88
2023-03-23T20:23:41.881Z,30.00
2023-03-23T20:26:23.242Z,29.83
2023-03-23T20:28:51.071Z,30.05
2023-03-23T20:31:26.816Z,30.27
2023-03-23T20:34:02.385Z,29.23
2023-03-23T20:36:42.413Z,30.10
2023-03-23T20:39:19.214Z,31.25
2023-03-23T20:41:48.285Z,26.60
2023-03-23T20:44:16.181Z,27.65
2023-03-23T20:46:45.349Z,29.00
2023-03-23T20:49:13.082Z,29.73
2023-03-23T20:51:40.153Z,26.95
2023-03-23T20:54:09.054Z,33.28
2023-03-23T20:56:37.324Z,28.42
2023-03-23T20:59:05.721Z,31.88
2023-03-23T21:01:33.311Z,25.35
2023-03-23T21:04:00.622Z,27.70
2023-03-23T21:06:28.980Z,27.98
2023-03-23T21:08:57.292Z,26.05
2023-03-23T21:11:26.859Z,31.25
2023-03-23T21:13:54.169Z,27.80
2023-03-23T21:16:22.916Z,23.95
2023-03-23T21:18:50.380Z,24.20
2023-03-23T21:21:18.386Z,25.38
2023-03-23T21:23:47.043Z,28.38
2023-03-23T21:26:17.022Z,27.42
2023-03-23T21:28:44.975Z,23.27
2023-03-23T21:31:12.451Z,29.92
2023-03-23T21:33:39.381Z,29.50
2023-03-23T21:36:07.125Z,29.98
2023-03-23T21:38:34.364Z,28.75
2023-03-23T21:41:09.029Z,31.15
2023-03-23T21:43:36.208Z,30.90
2023-03-23T21:46:05.931Z,29.63
2023-03-23T21:48:35.520Z,28.70
2023-03-23T21:51:14.417Z,31.25
2023-03-23T21:53:42.140Z,29.45
2023-03-23T21:56:10.800Z,31.50
2023-03-23T21:58:38.393Z,28.40
2023-03-23T22:01:05.574Z,32.80
2023-03-23T22:03:35.259Z,29.70
2023-03-23T22:06:12.377Z,29.73
2023-03-23T22:08:41.248Z,29.05
2023-03-23T22:11:14.727Z,33.17
2023-03-23T22:13:42.328Z,25.33
2023-03-23T22:16:13.484Z,28.00
2023-03-23T22:18:43.037Z,24.15
2023-03-23T22:21:10.177Z,27.17
2023-03-23T22:23:37.210Z,26.83
2023-03-23T22:26:05.760Z,26.08
2023-03-23T22:28:33.887Z,25.10
2023-03-23T22:31:12.852Z,25.85
2023-03-23T22:33:40.054Z,25.60
2023-03-23T22:36:07.553Z,25.30
2023-03-23T22:38:36.683Z,25.50
2023-03-23T22:41:07.011Z,27.75
2023-03-23T22:43:36.029Z,25.30
2023-03-23T22:46:04.217Z,24.50
2023-03-23T22:48:31.602Z,26.27
2023-03-23T22:50:58.772Z,23.48
2023-03-23T22:53:26.263Z,25.77
2023-03-23T22:55:56.577Z,24.58
2023-03-23T22:58:25.827Z,22.08
2023-03-23T23:01:05.496Z,26.15
2023-03-23T23:03:32.949Z,25.65
2023-03-23T23:06:00.704Z,28.02
2023-03-23T23:08:29.980Z,25.63
2023-03-23T23:10:58.950Z,27.08
2023-03-23T23:13:27.021Z,24.92
2023-03-23T23:15:56.476Z,23.83
2023-03-23T23:18:24.887Z,24.52
2023-03-23T23:20:55.371Z,25.33
2023-03-23T23:23:23.789Z,25.85
2023-03-23T23:25:51.010Z,27.30
2023-03-23T23:28:19.051Z,27.95
2023-03-23T23:30:46.542Z,24.83
2023-03-23T23:33:13.982Z,26.60
2023-03-23T23:35:41.673Z,25.20
2023-03-23T23:38:12.692Z,25.58
2023-03-23T23:40:44.096Z,26.58
2023-03-23T23:43:13.609Z,27.70
2023-03-23T23:45:40.941Z,27.90
2023-03-23T23:48:08.413Z,27.85
2023-03-23T23:50:36.210Z,26.08
2023-03-23T23:53:03.362Z,27.23
2023-03-23T23:55:30.433Z,26.35
2023-03-23T23:57:57.610Z,28.17
